LIMU 191755Z 24005KT CAVOK 22/14 Q1025 RMK SCT SCT200 QUK 1 QUL 1 S VIS MAR 35 KM VIS MIN 9999 LIMU 191655Z 23005KT CAVOK 22/17 Q1025 RMK SCT SCT200 QUK 1 QUL 1 S VIS MAR 35 KM VIS MIN 9999 LIMU 191555Z 23010KT CAVOK 22/17 Q1025 RMK FEW FEW200 QUK 2 QUL 1 S VIS MAR 35 KM VIS MIN 9999 LIMU 191455Z 24011KT CAVOK 23/16 Q1025 RMK FEW FEW200 QUK 2 QUL 1 S VIS MAR 35 KM VIS MIN 9999 LIMU 191355Z 22013KT CAVOK 24/15 Q1025 RMK FEW FEW200 QUK 2 QUL 1 S VIS MAR 35 KM VIS MIN 9999 LIMU 191255Z 24013KT CAVOK 24/12 Q1025 RMK SCT FEW070 QUK 2 QUL 1 SE VIS MAR 35 KM VIS MIN 9999 LIMU 191155Z 23007KT CAVOK 23/14 Q1025 RMK SCT FEW070 QUK 2 QUL 1 SE VIS MAR 35 KM VIS MIN 9999 LIMU 191055Z 24005KT CAVOK 23/14 Q1025 RMK SCT FEW070 SCT200 QUK 1 QUL 1 SE VIS MAR 35 KM VIS MIN 9999 LIMU 190955Z 23008KT 9999 FEW046 23/15 Q1025 RMK BKN SCT070 QUK 1 QUL 1 SE VIS MAR 35 KM VIS MIN 9999 LIMU 190855Z 23007KT CAVOK 25/12 Q1025 RMK BKN SCT070 SCT200 QUK 1 QUL 1 SE VIS MAR 35 KM VIS MIN 9999 LIMU 190755Z 21006KT CAVOK 25/12 Q1025 RMK SCT SCT070 QUK 1 QUL 1 SE VIS MAR 35 KM VIS MIN 9999 LIMU 190655Z 02004KT CAVOK 22/11 Q1025 RMK SCT SCT070 QUK 1 QUL 1 SE VIS MAR 35 KM VIS MIN 9999 LIMU 190555Z 02006KT CAVOK 21/06 Q1024 RMK SCT SCT070 QUK 1 QUL 1 SE VIS MAR 30 KM VIS MIN 9999 LIMU 181755Z 01005KT 9999 FEW010 23/16 Q1019 RMK SCT SCT200 QUK 0 QUL 0 VIS MAR 30 KM VIS MIN 9999 LIMU 181655Z 00000KT 9999 FEW010 24/12 Q1019 RMK SCT SCT200 QUK 0 QUL 0 VIS MAR 30 KM VIS MIN 9999 LIMU 181555Z 02005KT 9999 FEW010 25/18 Q1019 RMK FEW QUK 0 QUL 0 VIS MAR 30 KM VIS MIN 9999 LIMU 181455Z 35005KT 9999 FEW010 25/18 Q1019 RMK FEW QUK 0 QUL 0 VIS MAR 30 KM VIS MIN 9999 LIMU 181355Z 02005KT 9999 FEW010 24/18 Q1019 RMK FEW QUK 0 QUL 0 VIS MAR 30 KM VIS MIN 9999

METAR Messwerte "CAPE MELE" LIMU

Zurück zur Übersicht

Ortsname
Ländercode / m ü. NN
Zeit Temperatur Taupunkt Rel.
Luftfeuchte
Luftdruck:
Altimeter
NN
Station
Wind in Beaufort
(Knoten)
Sichtweite
(Meter)
Wolken
(Meter über Grund)
Wettererscheinung
CAPE MELE
IT 215
Do 19.05. 19:55221460 %1025
1024
999
WSW 2 (5)>= 10000Nicht signifikant 
CAPE MELE
IT 215
Do 19.05. 18:55221773 %1025
1024
999
SW 2 (5)>= 10000Nicht signifikant 
CAPE MELE
IT 215
Do 19.05. 17:55221773 %1025
1024
999
SW 3 (10)>= 10000Nicht signifikant 
CAPE MELE
IT 215
Do 19.05. 16:55231665 %1025
1024
999
WSW 4 (11)>= 10000Nicht signifikant 
CAPE MELE
IT 215
Do 19.05. 15:55241557 %1025
1024
999
SW 4 (13)>= 10000Nicht signifikant 
CAPE MELE
IT 215
Do 19.05. 14:55241247 %1025
1024
999
WSW 4 (13)>= 10000Nicht signifikant 
CAPE MELE
IT 215
Do 19.05. 13:55231457 %1025
1024
999
SW 3 (7)>= 10000Nicht signifikant 
CAPE MELE
IT 215
Do 19.05. 12:55231457 %1025
1024
999
WSW 2 (5)>= 10000Nicht signifikant 
CAPE MELE
IT 215
Do 19.05. 11:55231561 %1025
1024
999
SW 3 (8)>= 10000Wolkig (2100)
Leicht bewölkt (1400)
 
CAPE MELE
IT 215
Do 19.05. 10:55251244 %1025
1024
999
SW 3 (7)>= 10000Nicht signifikant 
CAPE MELE
IT 215
Do 19.05. 09:55251244 %1025
1024
999
SSW 2 (6)>= 10000Nicht signifikant 
CAPE MELE
IT 215
Do 19.05. 08:55221150 %1025
1024
999
NNO 2 (4)>= 10000Nicht signifikant 
CAPE MELE
IT 215
Do 19.05. 07:5521638 %1024
1024
998
NNO 2 (6)>= 10000Nicht signifikant 
CAPE MELE
IT 215
Mi 18.05. 19:55231665 %1019
1018
993
N 2 (5)>= 10000Wolkig (6100)
Leicht bewölkt (300)
 
CAPE MELE
IT 215
Mi 18.05. 18:55241247 %1019
1018
993
Windstill>= 10000Wolkig (6100)
Leicht bewölkt (300)
 
CAPE MELE
IT 215
Mi 18.05. 17:55251865 %1019
1018
993
NNO 2 (5)>= 10000Leicht bewölkt (300) 
CAPE MELE
IT 215
Mi 18.05. 16:55251865 %1019
1018
993
N 2 (5)>= 10000Leicht bewölkt (300) 
CAPE MELE
IT 215
Mi 18.05. 15:55241869 %1019
1018
993
NNO 2 (5)>= 10000Leicht bewölkt (300) 

Altimeter: Einstellung am Altimeter (Höhenmesser), die Höhe 0 muss auf diesen Luftdruckwert zeigen, damit das Gerät die Stationshöhe richtig anzeigt.

NN: Luftdruck reduziert auf "Normal Null", auf Meereshöhe, dieser von der Temperatur abhängige Wert wird bisweilen unkorrekt einfach als "Luftdruck" bezeichnet. Eigentlich nur eine fiktive Größe, die es erlaubt, Stationen auf unterschiedlichen Höhen miteinander zu vergleichen.

Station: Realer Luftdruck an der Station.